Time;durP1;ratioP1;P1;durP2;ratioP2;P2;SDS_P1;SDS_P2;PMS_P1;PMS_P2;Temp;Humidity;BMP_temperature;BMP_pressure;BME280_temperature;BME280_humidity;BME280_pressure;Samples;Min_cycle;Max_cycle;Signal;HPM_P1;HPM_P2
2022/06/29 00:00:24;;;;;;;3.10;2.80;;;19.50;99.90;;;;;;5055453;28;20206;-65
2022/06/29 00:02:51;;;;;;;3.50;2.80;;;19.50;99.90;;;;;;5055198;28;20229;-64
2022/06/29 00:05:19;;;;;;;3.22;2.92;;;19.50;99.90;;;;;;5055292;28;20209;-64
2022/06/29 00:07:46;;;;;;;3.53;3.20;;;19.50;99.90;;;;;;5055667;28;20215;-64
2022/06/29 00:10:15;;;;;;;4.80;2.80;;;19.50;99.90;;;;;;5055780;28;20213;-64
2022/06/29 00:12:43;;;;;;;5.32;3.38;;;19.50;99.90;;;;;;5055737;28;20639;-64
2022/06/29 00:15:11;;;;;;;3.88;3.42;;;19.40;99.90;;;;;;5055634;28;20237;-64
2022/06/29 00:17:38;;;;;;;5.43;3.50;;;19.30;99.90;;;;;;5055389;28;20220;-64
2022/06/29 00:20:07;;;;;;;3.15;2.90;;;19.20;99.90;;;;;;5055297;28;20209;-64
2022/06/29 00:22:35;;;;;;;6.55;3.10;;;19.10;99.90;;;;;;5055168;28;20233;-64
2022/06/29 00:25:03;;;;;;;4.65;2.80;;;19.10;99.90;;;;;;5055500;28;20220;-62
2022/06/29 00:27:32;;;;;;;3.42;3.13;;;18.90;99.90;;;;;;5055298;28;20591;-62
2022/06/29 00:29:59;;;;;;;3.28;2.97;;;18.90;99.90;;;;;;5055373;28;20259;-62
2022/06/29 00:32:26;;;;;;;5.05;3.00;;;18.80;99.90;;;;;;5055047;28;20239;-62
2022/06/29 00:34:53;;;;;;;3.85;3.20;;;18.70;99.90;;;;;;5055895;28;20212;-63
2022/06/29 00:37:19;;;;;;;6.60;3.30;;;18.60;99.90;;;;;;5055546;28;20202;-62
2022/06/29 00:39:46;;;;;;;4.10;2.90;;;18.50;99.90;;;;;;5055317;28;20210;-62
2022/06/29 00:42:13;;;;;;;9.00;3.42;;;18.50;99.90;;;;;;5055574;28;20655;-63
2022/06/29 00:44:41;;;;;;;6.90;3.20;;;18.40;99.90;;;;;;5055076;28;20601;-64
2022/06/29 00:47:08;;;;;;;3.72;2.95;;;18.40;99.90;;;;;;5055181;28;20225;-64
2022/06/29 00:49:36;;;;;;;3.45;3.00;;;18.40;99.90;;;;;;5055567;28;20212;-64
2022/06/29 00:52:08;;;;;;;3.17;2.97;;;18.40;99.90;;;;;;5056013;28;20225;-64
2022/06/29 00:54:37;;;;;;;3.53;3.22;;;18.40;99.90;;;;;;5058079;28;20201;-64
2022/06/29 00:57:08;;;;;;;4.25;3.15;;;18.30;99.90;;;;;;5058253;28;20209;-63
2022/06/29 00:59:47;;;;;;;5.28;3.13;;;18.30;99.90;;;;;;5057830;28;20185;-64
2022/06/29 01:02:15;;;;;;;3.72;3.38;;;18.30;99.90;;;;;;5056747;28;20233;-64
2022/06/29 01:04:43;;;;;;;3.42;3.15;;;18.30;99.90;;;;;;5057312;28;20226;-64
2022/06/29 01:07:12;;;;;;;5.68;3.65;;;18.30;99.90;;;;;;5057253;28;20563;-64
2022/06/29 01:09:39;;;;;;;4.68;3.28;;;18.40;99.90;;;;;;5056203;28;20217;-64
2022/06/29 01:12:07;;;;;;;5.75;3.30;;;18.30;99.90;;;;;;5055522;28;20592;-63
2022/06/29 01:14:34;;;;;;;4.40;3.40;;;18.30;99.90;;;;;;5055166;28;20212;-63
2022/06/29 01:17:03;;;;;;;7.47;3.00;;;18.20;99.90;;;;;;5055390;28;20212;-63
2022/06/29 01:19:30;;;;;;;3.63;3.33;;;18.10;99.90;;;;;;5055797;28;20205;-64
2022/06/29 01:22:07;;;;;;;4.38;3.55;;;18.00;99.90;;;;;;5055350;28;20221;-64
2022/06/29 01:24:34;;;;;;;5.90;3.70;;;18.00;99.90;;;;;;5055517;28;20225;-64
2022/06/29 01:27:00;;;;;;;3.65;3.35;;;17.90;99.90;;;;;;5055340;28;20209;-63
2022/06/29 01:29:28;;;;;;;3.88;3.30;;;17.90;99.90;;;;;;5055738;28;20661;-64
2022/06/29 01:31:56;;;;;;;3.97;3.58;;;17.90;99.90;;;;;;5055209;28;20223;-64
2022/06/29 01:34:23;;;;;;;3.50;3.22;;;18.00;99.90;;;;;;5055508;28;20185;-63
2022/06/29 01:36:50;;;;;;;5.22;3.53;;;17.90;99.90;;;;;;5055253;28;20217;-64
2022/06/29 01:39:18;;;;;;;4.97;3.60;;;18.00;99.90;;;;;;5055572;28;20236;-64
2022/06/29 01:41:45;;;;;;;4.13;3.80;;;18.00;99.90;;;;;;5054912;28;20304;-62
2022/06/29 01:44:12;;;;;;;3.85;3.50;;;18.10;99.90;;;;;;5055341;28;20221;-64
2022/06/29 01:46:38;;;;;;;6.85;3.90;;;18.10;99.90;;;;;;5055031;28;20210;-64
2022/06/29 01:49:06;;;;;;;4.57;3.50;;;18.10;99.90;;;;;;5054699;28;20209;-64
2022/06/29 01:51:33;;;;;;;5.57;3.72;;;18.20;99.90;;;;;;5054346;28;20209;-64
2022/06/29 01:53:59;;;;;;;4.13;3.70;;;18.20;99.90;;;;;;5054609;28;20235;-63
2022/06/29 01:56:28;;;;;;;4.10;3.70;;;18.30;99.90;;;;;;5054496;28;20232;-64
2022/06/29 01:58:54;;;;;;;3.95;3.55;;;18.30;99.90;;;;;;5055136;28;20212;-63
2022/06/29 02:01:21;;;;;;;8.00;3.67;;;18.30;99.90;;;;;;5056115;28;20210;-63
2022/06/29 02:03:48;;;;;;;4.00;3.60;;;18.40;99.90;;;;;;5057936;28;20229;-64
2022/06/29 02:06:15;;;;;;;5.30;4.15;;;18.40;99.90;;;;;;5058109;28;20201;-63
2022/06/29 02:08:43;;;;;;;5.30;3.67;;;18.40;99.90;;;;;;5058536;28;20228;-64
2022/06/29 02:11:10;;;;;;;3.90;3.60;;;18.40;99.90;;;;;;5058380;28;20217;-63
2022/06/29 02:13:38;;;;;;;7.45;4.10;;;18.40;99.90;;;;;;5058254;28;20704;-64
2022/06/29 02:16:05;;;;;;;4.65;3.60;;;18.40;99.90;;;;;;5058264;28;20206;-64
2022/06/29 02:18:32;;;;;;;3.83;3.40;;;18.40;99.90;;;;;;5058383;28;20210;-63
2022/06/29 02:20:59;;;;;;;4.82;3.60;;;18.40;99.90;;;;;;5058279;28;20642;-64
2022/06/29 02:23:26;;;;;;;5.70;3.58;;;18.30;99.90;;;;;;5058079;28;20234;-63
2022/06/29 02:25:53;;;;;;;4.80;3.58;;;18.30;99.90;;;;;;5058487;28;20212;-64
2022/06/29 02:28:20;;;;;;;4.90;3.70;;;18.40;99.90;;;;;;5058538;28;20202;-63
2022/06/29 02:36:28;;;;;;;8.00;4.00;;;18.40;99.90;;;;;;5035428;28;20229;-63
2022/06/29 02:38:54;;;;;;;6.28;3.85;;;18.30;99.90;;;;;;5052868;28;20205;-63
2022/06/29 02:41:21;;;;;;;5.20;4.63;;;18.30;99.90;;;;;;5057612;28;20288;-63
2022/06/29 02:43:48;;;;;;;4.93;3.88;;;18.30;99.90;;;;;;5057151;28;20235;-63
2022/06/29 02:46:16;;;;;;;4.90;4.03;;;18.30;99.90;;;;;;5059243;28;20296;-63
2022/06/29 02:48:43;;;;;;;9.30;4.70;;;18.20;99.90;;;;;;5060170;28;20721;-62
2022/06/29 02:51:10;;;;;;;6.93;4.35;;;18.20;99.90;;;;;;5061018;28;20236;-63
2022/06/29 02:53:36;;;;;;;7.50;4.78;;;18.20;99.90;;;;;;5059793;28;20245;-62
2022/06/29 02:56:04;;;;;;;7.22;4.53;;;18.20;99.90;;;;;;5060123;28;20213;-63
2022/06/29 02:58:31;;;;;;;6.55;4.18;;;18.20;99.90;;;;;;5060497;28;20216;-62
2022/06/29 03:00:57;;;;;;;5.70;4.03;;;18.20;99.90;;;;;;5059271;28;20209;-63
2022/06/29 03:03:26;;;;;;;5.05;3.90;;;18.20;99.90;;;;;;5058160;28;20604;-63
2022/06/29 03:05:53;;;;;;;4.00;3.60;;;18.10;99.90;;;;;;5058317;28;20232;-64
2022/06/29 03:08:19;;;;;;;5.05;3.85;;;18.00;99.90;;;;;;5057675;28;20205;-63
2022/06/29 03:10:46;;;;;;;8.48;3.95;;;17.90;99.90;;;;;;5057993;28;20205;-63
2022/06/29 03:13:13;;;;;;;3.92;3.53;;;17.90;99.90;;;;;;5057419;28;20226;-62
2022/06/29 03:15:39;;;;;;;4.20;3.80;;;17.80;99.90;;;;;;5056988;28;20205;-63
2022/06/29 03:18:07;;;;;;;7.90;4.20;;;17.70;99.90;;;;;;5056559;28;20205;-63
2022/06/29 03:20:35;;;;;;;4.10;3.80;;;17.70;99.90;;;;;;5057689;28;20209;-63
2022/06/29 03:23:02;;;;;;;4.20;3.80;;;17.60;99.90;;;;;;5057007;28;20309;-63
2022/06/29 03:25:29;;;;;;;4.47;3.70;;;17.50;99.90;;;;;;5056839;28;20236;-63
2022/06/29 03:27:55;;;;;;;4.03;3.65;;;17.40;99.90;;;;;;5056401;28;20665;-62
2022/06/29 03:30:22;;;;;;;4.32;4.00;;;17.30;99.90;;;;;;5057414;28;20206;-64
2022/06/29 03:32:49;;;;;;;5.13;3.70;;;17.20;99.90;;;;;;5056980;28;20622;-63
2022/06/29 03:35:16;;;;;;;6.07;4.28;;;17.20;99.90;;;;;;5056717;28;20205;-64
2022/06/29 03:37:44;;;;;;;4.22;3.85;;;17.20;99.90;;;;;;5057603;28;20206;-63
2022/06/29 03:40:12;;;;;;;4.20;3.80;;;17.30;99.90;;;;;;5057113;28;20210;-63
2022/06/29 03:42:39;;;;;;;4.80;4.07;;;17.30;99.90;;;;;;5057101;28;20709;-66
2022/06/29 03:45:06;;;;;;;8.38;4.30;;;17.40;99.90;;;;;;5056648;28;20229;-62
2022/06/29 03:47:33;;;;;;;6.28;4.15;;;17.40;99.90;;;;;;5057020;28;20297;-63
2022/06/29 03:50:00;;;;;;;8.25;4.50;;;17.50;99.90;;;;;;5057445;28;20213;-63
2022/06/29 03:52:27;;;;;;;6.15;4.97;;;17.50;99.90;;;;;;5057012;28;20237;-64
2022/06/29 03:54:55;;;;;;;6.70;5.72;;;17.60;99.90;;;;;;5056677;28;20197;-64
2022/06/29 03:57:22;;;;;;;7.28;5.95;;;17.70;99.90;;;;;;5056977;28;20202;-64
2022/06/29 03:59:49;;;;;;;6.38;4.68;;;17.80;99.90;;;;;;5057114;28;20213;-64
2022/06/29 04:02:16;;;;;;;5.35;4.82;;;17.90;99.90;;;;;;5056198;28;20272;-64
2022/06/29 04:04:42;;;;;;;5.80;4.20;;;18.00;99.90;;;;;;5056239;28;20262;-63
2022/06/29 04:07:09;;;;;;;5.63;4.15;;;18.10;99.90;;;;;;5056963;28;20210;-64
2022/06/29 04:09:36;;;;;;;8.90;4.38;;;18.10;99.90;;;;;;5056570;28;20285;-64
2022/06/29 04:12:05;;;;;;;7.47;3.92;;;18.20;99.90;;;;;;5056786;28;20225;-64
2022/06/29 04:14:32;;;;;;;10.32;4.10;;;18.20;99.90;;;;;;5056914;28;20204;-64
2022/06/29 04:16:59;;;;;;;7.13;4.03;;;18.30;99.90;;;;;;5055570;28;20201;-64
2022/06/29 04:19:26;;;;;;;4.63;3.75;;;18.40;99.90;;;;;;5054849;28;20209;-64
2022/06/29 04:21:54;;;;;;;5.97;3.92;;;18.50;99.90;;;;;;5055011;28;20209;-64
2022/06/29 04:24:21;;;;;;;7.03;3.92;;;18.60;99.90;;;;;;5053916;28;20225;-64
2022/06/29 04:26:48;;;;;;;5.25;3.88;;;18.60;99.90;;;;;;5055715;28;20673;-64
2022/06/29 04:29:17;;;;;;;6.20;3.88;;;18.50;99.90;;;;;;5055242;28;20214;-63
2022/06/29 04:31:43;;;;;;;5.40;4.68;;;18.60;99.90;;;;;;5054460;28;20209;-63
2022/06/29 04:34:10;;;;;;;5.78;3.88;;;18.70;99.90;;;;;;5053736;28;20216;-63
2022/06/29 04:36:37;;;;;;;5.60;4.10;;;18.90;99.90;;;;;;5054859;28;20213;-63
2022/06/29 04:39:04;;;;;;;5.80;3.80;;;19.10;99.90;;;;;;5054254;28;20209;-64
2022/06/29 04:41:30;;;;;;;6.15;3.70;;;19.30;99.90;;;;;;5054790;28;20220;-64
2022/06/29 04:43:57;;;;;;;4.63;3.90;;;19.50;99.90;;;;;;5054667;28;20693;-63
2022/06/29 04:46:25;;;;;;;8.18;3.80;;;19.80;99.90;;;;;;5054352;28;20209;-64
2022/06/29 04:48:56;;;;;;;4.43;3.47;;;20.10;99.90;;;;;;5055065;28;20205;-64
2022/06/29 04:51:24;;;;;;;5.07;3.45;;;20.60;99.90;;;;;;5054673;28;20654;-65
2022/06/29 04:53:54;;;;;;;4.28;3.40;;;21.00;99.90;;;;;;5054807;28;20246;-66
2022/06/29 04:56:21;;;;;;;3.83;3.53;;;21.10;99.90;;;;;;5053948;28;20213;-66
2022/06/29 04:58:48;;;;;;;4.35;3.63;;;21.00;99.90;;;;;;5054713;28;20206;-63
2022/06/29 05:01:15;;;;;;;4.18;3.88;;;20.80;99.90;;;;;;5055332;28;20212;-65
2022/06/29 05:03:43;;;;;;;4.78;3.58;;;20.60;99.90;;;;;;5055058;28;20237;-62
2022/06/29 05:06:10;;;;;;;4.68;3.78;;;20.60;99.90;;;;;;5054840;28;20202;-66
2022/06/29 05:08:36;;;;;;;8.63;3.60;;;20.60;99.90;;;;;;5054556;28;20214;-64
2022/06/29 05:11:03;;;;;;;10.68;4.00;;;20.60;99.90;;;;;;5055736;28;20232;-63
2022/06/29 05:13:30;;;;;;;3.95;3.60;;;20.60;99.90;;;;;;5055657;28;20229;-63
2022/06/29 05:15:57;;;;;;;3.92;3.55;;;20.60;99.90;;;;;;5056209;28;20207;-63
2022/06/29 05:18:24;;;;;;;4.32;3.80;;;20.50;99.90;;;;;;5056657;28;20239;-64
2022/06/29 05:20:52;;;;;;;7.93;3.55;;;20.50;99.90;;;;;;5056236;28;20205;-66
2022/06/29 05:23:19;;;;;;;3.80;3.50;;;20.40;99.90;;;;;;5056876;28;20225;-63
2022/06/29 05:25:46;;;;;;;5.15;3.78;;;20.50;99.90;;;;;;5056255;28;20237;-64
2022/06/29 05:28:13;;;;;;;5.60;3.78;;;20.70;99.90;;;;;;5056791;28;20217;-64
2022/06/29 05:30:40;;;;;;;3.85;3.50;;;20.80;99.90;;;;;;5056512;28;20233;-64
2022/06/29 05:33:06;;;;;;;4.43;3.50;;;20.90;99.90;;;;;;5055471;28;20233;-63
2022/06/29 05:35:34;;;;;;;7.40;3.60;;;21.00;99.90;;;;;;5057927;28;20202;-64
2022/06/29 05:38:02;;;;;;;4.15;3.38;;;21.00;99.90;;;;;;5060695;28;20282;-63
2022/06/29 05:40:29;;;;;;;5.88;3.70;;;21.10;99.90;;;;;;5060396;28;20653;-63
2022/06/29 05:42:57;;;;;;;7.30;3.80;;;21.40;99.90;;;;;;5060035;28;20267;-64
2022/06/29 05:45:24;;;;;;;3.97;3.67;;;21.60;99.90;;;;;;5060622;28;20229;-64
2022/06/29 05:47:51;;;;;;;5.25;3.67;;;21.70;99.90;;;;;;5060396;28;20216;-65
2022/06/29 05:50:18;;;;;;;5.57;3.92;;;21.80;99.90;;;;;;5061189;28;20209;-65
2022/06/29 05:52:45;;;;;;;4.47;3.80;;;21.80;99.90;;;;;;5060218;28;20700;-62
2022/06/29 05:55:13;;;;;;;4.30;3.80;;;22.00;99.90;;;;;;5058825;28;20398;-64
2022/06/29 05:57:40;;;;;;;3.70;3.17;;;22.20;99.90;;;;;;5058877;28;20212;-64
2022/06/29 06:00:08;;;;;;;4.50;3.67;;;22.40;99.90;;;;;;5058739;28;20304;-60
2022/06/29 06:02:35;;;;;;;6.82;4.03;;;22.50;99.90;;;;;;5056578;28;20221;-64
2022/06/29 06:05:02;;;;;;;4.03;3.60;;;22.40;99.90;;;;;;5059699;28;20229;-63
2022/06/29 06:07:29;;;;;;;4.38;3.80;;;22.40;99.90;;;;;;5059784;28;20590;-63
2022/06/29 06:09:57;;;;;;;4.10;3.70;;;22.40;99.90;;;;;;5061592;28;20575;-62
2022/06/29 06:12:25;;;;;;;5.45;4.60;;;22.50;99.90;;;;;;5060517;28;20242;-62
2022/06/29 06:14:52;;;;;;;5.85;3.60;;;22.50;99.90;;;;;;5060790;28;20240;-63
2022/06/29 06:17:18;;;;;;;5.53;4.22;;;22.50;99.90;;;;;;5059598;28;20214;-63
2022/06/29 06:19:45;;;;;;;5.28;3.83;;;22.80;99.90;;;;;;5057616;28;20290;-63
2022/06/29 06:22:12;;;;;;;3.90;3.58;;;23.10;99.90;;;;;;5057394;28;20237;-62
2022/06/29 06:24:39;;;;;;;5.45;3.72;;;23.20;99.90;;;;;;5057990;28;20229;-63
2022/06/29 06:27:06;;;;;;;5.60;3.67;;;23.40;99.90;;;;;;5057297;28;20312;-64
2022/06/29 06:29:34;;;;;;;5.97;3.53;;;23.60;99.90;;;;;;5057617;28;20674;-64
2022/06/29 06:32:02;;;;;;;4.15;3.72;;;23.80;99.90;;;;;;5057244;28;20230;-65
2022/06/29 06:34:29;;;;;;;5.45;4.20;;;23.90;99.90;;;;;;5057179;28;20235;-67
2022/06/29 06:36:55;;;;;;;6.03;3.75;;;24.20;99.90;;;;;;5057736;28;20205;-66
2022/06/29 06:39:22;;;;;;;4.55;3.33;;;24.40;99.90;;;;;;5058761;28;20212;-66
2022/06/29 06:41:48;;;;;;;4.35;3.50;;;24.70;99.90;;;;;;5058489;28;20205;-67
2022/06/29 06:44:15;;;;;;;5.25;3.28;;;24.80;99.90;;;;;;5058061;28;20208;-65
2022/06/29 06:46:46;;;;;;;6.47;3.63;;;24.90;99.90;;;;;;5057293;28;20283;-63
2022/06/29 06:49:13;;;;;;;8.18;4.18;;;25.00;99.90;;;;;;5058451;28;20212;-62
2022/06/29 06:51:40;;;;;;;3.92;3.40;;;25.30;99.90;;;;;;5057767;28;20711;-65
2022/06/29 06:54:07;;;;;;;4.28;3.05;;;25.60;99.90;;;;;;5058167;28;20229;-69
2022/06/29 06:56:34;;;;;;;3.88;3.42;;;25.80;99.90;;;;;;5057902;28;20220;-65
2022/06/29 06:59:01;;;;;;;8.40;4.57;;;26.10;99.90;;;;;;5057296;28;20212;-65
2022/06/29 07:01:28;;;;;;;6.75;3.53;;;26.40;99.90;;;;;;5056931;28;20205;-65
2022/06/29 07:03:56;;;;;;;8.48;7.68;;;26.70;99.90;;;;;;5056632;28;20232;-65
2022/06/29 07:06:23;;;;;;;5.03;3.53;;;27.00;99.90;;;;;;5057011;28;20221;-65
2022/06/29 07:08:50;;;;;;;7.50;3.72;;;27.50;99.90;;;;;;5056691;28;20225;-64
2022/06/29 07:11:17;;;;;;;4.35;3.80;;;28.10;99.90;;;;;;5056562;28;20205;-64
2022/06/29 07:13:44;;;;;;;5.38;3.50;;;28.50;99.90;;;;;;5057009;28;20235;-64
2022/06/29 07:16:11;;;;;;;4.97;3.63;;;28.70;99.90;;;;;;5056956;28;20212;-64
2022/06/29 07:18:38;;;;;;;7.63;4.85;;;29.00;99.90;;;;;;5056811;28;20263;-64
2022/06/29 07:21:06;;;;;;;4.63;3.42;;;29.30;99.90;;;;;;5057291;28;20202;-65
2022/06/29 07:23:33;;;;;;;6.10;3.28;;;29.60;99.90;;;;;;5056933;28;20560;-65
2022/06/29 07:26:00;;;;;;;5.28;3.25;;;30.00;99.90;;;;;;5057119;28;20288;-65
2022/06/29 07:28:27;;;;;;;4.07;3.22;;;30.40;99.90;;;;;;5056618;28;20669;-65
2022/06/29 07:30:53;;;;;;;5.05;4.00;;;30.60;99.90;;;;;;5056247;28;20202;-65
2022/06/29 07:33:20;;;;;;;4.22;3.13;;;30.50;99.90;;;;;;5056531;28;20328;-65
2022/06/29 07:35:47;;;;;;;4.00;3.03;;;30.40;99.90;;;;;;5056114;28;20669;-64
2022/06/29 07:38:15;;;;;;;7.05;3.05;;;30.50;99.90;;;;;;5056366;28;20216;-65
2022/06/29 07:40:42;;;;;;;4.70;2.80;;;30.50;99.90;;;;;;5056473;28;20215;-65
2022/06/29 07:43:09;;;;;;;4.50;2.90;;;31.00;99.90;;;;;;5057255;28;20484;-66
2022/06/29 07:45:36;;;;;;;3.17;2.83;;;31.10;99.90;;;;;;5055862;28;20596;-65
2022/06/29 07:48:03;;;;;;;7.88;3.38;;;31.30;99.90;;;;;;5056042;28;20197;-70
2022/06/29 07:50:31;;;;;;;3.42;2.90;;;31.80;99.90;;;;;;5056823;28;20197;-65
2022/06/29 07:52:58;;;;;;;3.53;2.60;;;33.50;98.30;;;;;;5056123;28;20240;-65
2022/06/29 07:55:26;;;;;;;3.58;2.45;;;34.90;94.10;;;;;;5057211;28;20232;-65
2022/06/29 07:57:53;;;;;;;3.38;2.50;;;35.50;91.80;;;;;;5056309;28;20689;-66
2022/06/29 08:00:21;;;;;;;7.13;2.88;;;36.20;89.00;;;;;;5056174;28;20209;-64
2022/06/29 08:02:50;;;;;;;10.90;8.27;;;37.00;85.30;;;;;;5056740;28;20240;-66
2022/06/29 08:05:17;;;;;;;10.43;6.90;;;37.70;80.10;;;;;;5055757;28;20233;-65
2022/06/29 08:07:43;;;;;;;3.42;3.13;;;38.30;76.10;;;;;;5056711;28;20229;-65
2022/06/29 08:10:11;;;;;;;6.20;2.80;;;39.10;72.10;;;;;;5056927;28;20216;-66
2022/06/29 08:12:39;;;;;;;3.65;2.53;;;40.10;68.00;;;;;;5056582;28;20225;-65
2022/06/29 08:15:06;;;;;;;4.82;3.40;;;41.00;62.70;;;;;;5056744;28;20574;-66
2022/06/29 08:17:33;;;;;;;2.67;2.13;;;41.60;60.90;;;;;;5056186;28;20680;-66
2022/06/29 08:20:00;;;;;;;3.63;2.40;;;42.20;58.60;;;;;;5056436;28;20288;-66
2022/06/29 08:22:27;;;;;;;4.03;2.30;;;42.70;55.90;;;;;;5056724;28;20221;-66
2022/06/29 08:24:54;;;;;;;2.35;2.10;;;43.00;55.40;;;;;;5056634;28;20213;-67
2022/06/29 08:27:22;;;;;;;4.10;2.40;;;43.40;54.20;;;;;;5056148;28;20208;-65
2022/06/29 08:29:51;;;;;;;2.78;2.50;;;43.90;52.20;;;;;;5056784;28;20228;-65
2022/06/29 08:32:18;;;;;;;2.90;2.25;;;44.20;51.50;;;;;;5056158;28;20229;-65
2022/06/29 08:34:45;;;;;;;4.30;2.72;;;43.60;52.10;;;;;;5056528;28;20244;-65
2022/06/29 08:37:12;;;;;;;3.60;2.03;;;42.70;52.30;;;;;;5056231;28;20209;-65
2022/06/29 08:39:39;;;;;;;2.80;2.03;;;42.30;52.60;;;;;;5055755;28;20683;-65
2022/06/29 08:42:07;;;;;;;2.45;2.20;;;41.60;53.50;;;;;;5057460;28;20225;-65
2022/06/29 08:44:36;;;;;;;4.47;2.10;;;41.40;54.00;;;;;;5057052;28;20244;-66
2022/06/29 08:47:05;;;;;;;5.97;2.22;;;41.60;53.10;;;;;;5056764;28;20296;-66
2022/06/29 08:49:32;;;;;;;5.35;2.20;;;41.20;53.30;;;;;;5056938;28;20215;-66
2022/06/29 08:52:00;;;;;;;3.38;2.10;;;40.60;54.10;;;;;;5057160;28;20209;-65
2022/06/29 08:54:27;;;;;;;3.20;2.08;;;40.20;54.90;;;;;;5055890;28;20209;-66
2022/06/29 08:56:55;;;;;;;2.65;2.42;;;39.80;55.20;;;;;;5056093;28;20236;-66
2022/06/29 08:59:23;;;;;;;3.28;2.40;;;39.10;56.20;;;;;;5055766;28;20209;-66
2022/06/29 09:01:50;;;;;;;2.97;2.40;;;38.30;57.50;;;;;;5056178;28;20201;-70
2022/06/29 09:04:19;;;;;;;2.92;2.50;;;37.30;59.00;;;;;;5056983;28;20206;-65
2022/06/29 09:06:47;;;;;;;5.43;3.22;;;36.20;60.90;;;;;;5056518;28;20320;-65
2022/06/29 09:09:13;;;;;;;4.90;3.10;;;35.20;63.10;;;;;;5056098;28;20201;-65
2022/06/29 09:11:43;;;;;;;5.68;2.90;;;34.60;64.70;;;;;;5056283;28;20213;-65
2022/06/29 09:14:13;;;;;;;5.43;2.55;;;34.10;67.30;;;;;;5056247;28;20255;-67
2022/06/29 09:16:57;;;;;;;3.88;2.80;;;33.60;68.90;;;;;;5055714;28;20213;-65
2022/06/29 09:19:28;;;;;;;3.50;2.78;;;33.20;69.60;;;;;;5056068;28;20217;-66
2022/06/29 09:21:57;;;;;;;4.50;3.33;;;32.80;71.60;;;;;;5055818;28;20328;-66
2022/06/29 09:24:26;;;;;;;6.70;3.03;;;32.30;72.70;;;;;;5055507;28;20212;-66
2022/06/29 09:26:55;;;;;;;3.80;3.40;;;31.90;74.00;;;;;;5055417;28;20732;-64
2022/06/29 09:29:24;;;;;;;4.63;2.97;;;31.70;74.90;;;;;;5055268;28;20211;-64
2022/06/29 09:32:13;;;;;;;5.05;3.20;;;31.70;75.50;;;;;;5055238;28;20575;-64
2022/06/29 09:34:43;;;;;;;5.32;2.90;;;31.90;75.90;;;;;;5056214;28;20268;-64
2022/06/29 09:37:12;;;;;;;4.00;3.28;;;31.80;76.10;;;;;;5049984;28;20451;-65
2022/06/29 09:39:41;;;;;;;4.72;2.90;;;31.90;76.80;;;;;;5056414;28;20204;-68
2022/06/29 09:42:10;;;;;;;4.57;2.80;;;32.10;76.00;;;;;;5054778;28;20229;-67
2022/06/29 09:44:37;;;;;;;4.28;3.03;;;31.70;77.70;;;;;;5054965;28;20209;-67
2022/06/29 09:47:08;;;;;;;4.30;3.30;;;31.50;78.60;;;;;;5055480;28;20712;-68
2022/06/29 09:49:36;;;;;;;5.40;3.08;;;31.70;79.20;;;;;;5055482;28;20206;-69
2022/06/29 09:52:07;;;;;;;4.95;2.92;;;32.10;78.10;;;;;;5055069;28;20225;-70
2022/06/29 09:54:38;;;;;;;4.72;3.30;;;32.50;76.50;;;;;;5054170;28;20531;-67
2022/06/29 09:57:07;;;;;;;5.25;3.45;;;32.80;75.40;;;;;;5055379;28;20524;-66
2022/06/29 10:02:37;;;;;;;6.07;3.55;;;33.00;74.80;;;;;;5054300;28;20224;-62
2022/06/29 10:05:07;;;;;;;4.25;3.40;;;33.00;74.80;;;;;;5053748;28;20614;-62
2022/06/29 10:07:38;;;;;;;4.55;3.20;;;32.80;74.70;;;;;;5053636;28;20288;-62
2022/06/29 10:10:08;;;;;;;3.95;3.10;;;32.60;75.80;;;;;;5054060;28;20292;-62
2022/06/29 10:15:53;;;;;;;5.65;3.70;;;31.70;77.00;;;;;;5053620;28;20240;-65
2022/06/29 10:18:32;;;;;;;5.00;3.30;;;31.20;79.30;;;;;;5054546;28;20631;-68
2022/06/29 10:20:59;;;;;;;7.50;3.45;;;31.30;79.40;;;;;;5053578;28;20723;-64
2022/06/29 10:23:48;;;;;;;4.00;3.13;;;31.20;81.70;;;;;;5056804;28;20709;-64
2022/06/29 10:26:45;;;;;;;4.80;2.97;;;31.20;83.10;;;;;;5057488;28;20230;-65
2022/06/29 10:29:45;;;;;;;4.90;3.03;;;31.20;83.40;;;;;;5058554;28;20693;-68
2022/06/29 10:32:19;;;;;;;3.33;2.72;;;31.30;82.70;;;;;;5058488;28;21064;-67
2022/06/29 10:37:32;;;;;;;4.13;3.05;;;31.40;82.80;;;;;;5058597;28;20247;-69
2022/06/29 10:40:04;;;;;;;4.63;3.17;;;31.00;83.90;;;;;;5059203;28;20584;-68
2022/06/29 10:45:25;;;;;;;3.35;3.05;;;30.40;85.50;;;;;;5057750;28;20325;-66
2022/06/29 10:48:17;;;;;;;7.90;3.05;;;30.40;86.50;;;;;;5058167;28;20594;-65
2022/06/29 10:50:45;;;;;;;4.45;3.50;;;30.60;84.70;;;;;;5043064;28;20243;-64
2022/06/29 10:53:14;;;;;;;3.97;2.90;;;30.60;84.30;;;;;;5057004;28;20229;-63
2022/06/29 10:55:44;;;;;;;6.25;3.20;;;30.00;86.50;;;;;;5058093;28;20255;-63
2022/06/29 10:58:11;;;;;;;5.15;3.20;;;29.60;88.80;;;;;;5059166;28;20202;-62
2022/06/29 11:00:40;;;;;;;3.92;3.05;;;29.40;89.00;;;;;;5058128;28;20665;-63
2022/06/29 11:03:12;;;;;;;7.13;2.85;;;29.30;89.50;;;;;;5056740;28;20604;-63
2022/06/29 11:12:01;;;;;;;4.13;3.20;;;29.70;89.40;;;;;;5057020;28;20209;-64
2022/06/29 11:14:02;;;;;;;4.07;3.13;;;30.00;87.30;;;;;;5057054;28;20549;-63
2022/06/29 11:16:35;;;;;;;4.00;3.13;;;30.20;86.40;;;;;;5056487;28;20638;-64
2022/06/29 11:19:03;;;;;;;5.78;3.20;;;30.90;84.90;;;;;;5057282;28;20209;-63
2022/06/29 11:21:30;;;;;;;5.30;3.10;;;31.70;82.50;;;;;;5058251;28;20288;-63
2022/06/29 11:23:58;;;;;;;5.82;2.75;;;32.40;79.80;;;;;;5056960;28;20672;-64
2022/06/29 11:26:27;;;;;;;3.47;2.72;;;32.90;77.90;;;;;;5057179;28;20848;-63
2022/06/29 11:28:57;;;;;;;6.05;2.75;;;33.30;76.40;;;;;;5057850;28;20648;-63
2022/06/29 11:31:24;;;;;;;3.30;2.53;;;33.60;75.80;;;;;;5056996;28;20700;-64
2022/06/29 11:33:53;;;;;;;3.28;2.60;;;33.90;74.10;;;;;;5057189;28;20585;-63
2022/06/29 11:36:22;;;;;;;3.65;2.55;;;34.00;72.90;;;;;;5057790;28;20202;-63
2022/06/29 11:38:51;;;;;;;5.43;2.80;;;34.20;73.20;;;;;;5057108;28;20205;-63
2022/06/29 11:41:19;;;;;;;3.00;2.40;;;34.20;71.90;;;;;;5058326;28;20237;-64
2022/06/29 11:44:02;;;;;;;6.22;2.67;;;34.20;72.00;;;;;;5058258;28;20236;-63
2022/06/29 11:46:30;;;;;;;3.70;2.40;;;34.20;71.50;;;;;;5057315;28;20240;-63
2022/06/29 11:51:53;;;;;;;3.35;2.40;;;33.40;74.00;;;;;;5056634;28;20212;-64
2022/06/29 11:54:35;;;;;;;3.38;2.67;;;32.70;75.60;;;;;;5056152;28;20263;-63
2022/06/29 11:57:05;;;;;;;8.43;3.00;;;32.50;75.90;;;;;;5056258;28;20229;-63
2022/06/29 11:59:34;;;;;;;3.63;2.70;;;32.40;76.80;;;;;;5056242;28;20216;-64
2022/06/29 12:02:02;;;;;;;4.05;2.38;;;32.10;78.30;;;;;;5056089;28;20706;-64
2022/06/29 12:04:30;;;;;;;3.80;2.55;;;31.80;79.80;;;;;;5056424;28;20251;-64
2022/06/29 12:07:05;;;;;;;4.78;2.67;;;31.60;79.40;;;;;;5056315;28;20229;-63
2022/06/29 12:09:32;;;;;;;3.92;2.53;;;31.70;79.00;;;;;;5056540;28;20205;-62
2022/06/29 12:11:59;;;;;;;4.35;2.58;;;32.10;76.60;;;;;;5055477;28;20288;-62
2022/06/29 12:14:26;;;;;;;7.07;2.88;;;32.40;76.70;;;;;;5056108;28;20207;-62
2022/06/29 12:16:55;;;;;;;4.35;2.58;;;32.60;76.10;;;;;;5056111;28;20210;-62
2022/06/29 12:19:22;;;;;;;4.72;3.03;;;32.70;75.50;;;;;;5057377;28;20300;-64
2022/06/29 12:21:49;;;;;;;4.32;2.70;;;32.80;74.80;;;;;;5057638;28;20516;-64
2022/06/29 12:24:17;;;;;;;5.55;2.42;;;32.80;75.40;;;;;;5057102;28;20231;-64
2022/06/29 12:26:43;;;;;;;5.80;2.60;;;32.70;74.60;;;;;;5056657;28;20308;-63
2022/06/29 12:29:13;;;;;;;3.00;2.28;;;32.40;75.80;;;;;;5056671;28;20216;-62
2022/06/29 12:31:41;;;;;;;7.18;3.53;;;32.30;75.70;;;;;;5056784;28;20312;-62
2022/06/29 12:34:10;;;;;;;5.53;3.45;;;31.60;79.70;;;;;;5056350;28;20214;-63
2022/06/29 12:36:36;;;;;;;4.30;3.00;;;31.50;81.80;;;;;;5055917;28;20204;-64
2022/06/29 12:39:03;;;;;;;4.30;2.65;;;31.60;80.10;;;;;;5056605;28;20205;-63
2022/06/29 12:41:31;;;;;;;3.63;2.80;;;31.60;80.50;;;;;;5055411;28;20209;-63
2022/06/29 12:43:59;;;;;;;5.65;2.47;;;31.40;81.80;;;;;;5055495;28;20234;-63
2022/06/29 12:46:27;;;;;;;4.45;2.60;;;31.40;81.10;;;;;;5055369;28;20272;-63
2022/06/29 12:48:54;;;;;;;5.07;2.45;;;31.20;81.80;;;;;;5056401;28;20209;-63
2022/06/29 12:51:23;;;;;;;4.43;2.33;;;31.20;82.00;;;;;;5055506;28;20293;-63
2022/06/29 12:53:49;;;;;;;5.18;2.80;;;31.00;80.50;;;;;;5055357;28;20256;-63
2022/06/29 12:56:17;;;;;;;4.97;2.78;;;30.40;82.60;;;;;;5055669;28;20231;-62
2022/06/29 12:58:44;;;;;;;4.68;2.88;;;30.00;83.60;;;;;;5055491;28;20206;-62
2022/06/29 13:01:10;;;;;;;6.78;2.80;;;29.70;85.60;;;;;;5055416;28;20305;-62
2022/06/29 13:03:38;;;;;;;5.13;2.30;;;29.60;86.40;;;;;;5055585;28;20316;-62
2022/06/29 13:06:05;;;;;;;6.00;2.88;;;29.80;86.50;;;;;;5054819;28;20205;-62
2022/06/29 13:08:34;;;;;;;7.43;3.55;;;29.90;86.90;;;;;;5056762;28;20244;-63
2022/06/29 13:11:01;;;;;;;3.17;2.70;;;30.00;87.30;;;;;;5056137;28;20212;-63
2022/06/29 13:13:28;;;;;;;3.80;2.55;;;30.20;85.50;;;;;;5055374;28;20233;-63
2022/06/29 13:15:56;;;;;;;4.35;2.85;;;30.60;84.60;;;;;;5055213;28;20209;-63